Time;durP1;ratioP1;P1;durP2;ratioP2;P2;SDS_P1;SDS_P2;PMS_P1;PMS_P2;Temp;Humidity;BMP_temperature;BMP_pressure;BME280_temperature;BME280_humidity;BME280_pressure;Samples;Min_cycle;Max_cycle;Signal;HPM_P1;HPM_P2
2022/08/09 00:01:29;;;;;;;10.70;9.82;;;;;;;20.44;46.27;101077.94;4913806;28;101639;-79
2022/08/09 00:03:54;;;;;;;10.07;9.38;;;;;;;20.41;46.74;101095.94;4896896;28;100936;-79
2022/08/09 00:06:20;;;;;;;10.10;9.38;;;;;;;20.12;46.49;101059.47;4895448;28;96853;-79
2022/08/09 00:08:48;;;;;;;10.07;9.15;;;;;;;20.35;46.70;101089.19;4929296;28;97262;-79
2022/08/09 00:11:14;;;;;;;10.50;9.57;;;;;;;20.27;46.46;101076.31;4898221;28;101154;-79
2022/08/09 00:13:40;;;;;;;10.18;9.40;;;;;;;20.32;46.62;101089.38;4897072;28;101275;-83
2022/08/09 00:16:06;;;;;;;9.63;8.93;;;;;;;20.31;46.86;101093.84;4901791;28;97115;-79
2022/08/09 00:18:32;;;;;;;10.73;9.75;;;;;;;20.31;46.93;101093.00;4930077;28;97340;-79
2022/08/09 00:20:58;;;;;;;9.60;8.77;;;;;;;20.28;47.13;101094.03;4911570;28;101459;-83
2022/08/09 00:23:23;;;;;;;10.77;9.65;;;;;;;20.27;47.02;101086.13;4896564;28;100842;-80
2022/08/09 00:25:49;;;;;;;9.73;8.88;;;;;;;20.11;47.16;101079.09;4911943;28;97261;-79
2022/08/09 00:28:14;;;;;;;10.43;9.73;;;;;;;20.22;47.35;101093.59;4916837;28;96948;-80
2022/08/09 00:30:40;;;;;;;11.07;10.27;;;;;;;20.12;47.13;101083.47;4932483;28;101573;-82
2022/08/09 00:33:05;;;;;;;10.13;9.43;;;;;;;20.12;47.68;101093.28;4932576;28;101838;-79
2022/08/09 00:35:31;;;;;;;10.85;9.77;;;;;;;19.98;47.40;101064.81;4949567;28;97167;-79
2022/08/09 00:37:56;;;;;;;11.00;10.00;;;;;;;20.12;47.71;101088.78;4932179;28;97066;-79
2022/08/09 00:40:22;;;;;;;10.48;9.57;;;;;;;20.06;47.86;101089.19;4918050;28;101260;-80
2022/08/09 00:42:49;;;;;;;10.23;9.52;;;;;;;20.07;47.87;101093.56;4932028;28;97290;-80
2022/08/09 00:45:14;;;;;;;10.43;9.50;;;;;;;20.06;47.90;101096.31;4932278;28;97698;-79
2022/08/09 00:47:40;;;;;;;10.75;9.75;;;;;;;20.05;47.77;101095.47;4916341;28;97075;-80
2022/08/09 00:50:06;;;;;;;10.23;9.32;;;;;;;19.95;48.07;101082.78;4931915;28;101429;-79
2022/08/09 00:52:31;;;;;;;10.20;9.32;;;;;;;20.00;48.05;101094.88;4932816;28;101545;-79
2022/08/09 00:55:00;;;;;;;9.95;9.13;;;;;;;19.90;47.83;101078.63;4926748;28;97221;-79
2022/08/09 00:57:27;;;;;;;10.02;9.32;;;;;;;19.91;48.11;101095.44;4917996;28;98137;-79
2022/08/09 00:59:52;;;;;;;13.15;9.25;;;;;;;19.89;48.38;101100.00;4931379;28;101105;-80
2022/08/09 01:02:24;;;;;;;9.45;8.75;;;;;;;19.88;48.35;101111.63;4949601;28;97504;-79
2022/08/09 01:05:05;;;;;;;10.05;9.15;;;;;;;19.90;48.26;101107.06;4932345;28;96753;-79
2022/08/09 01:07:38;;;;;;;8.77;8.10;;;;;;;19.73;48.56;101084.09;4949027;28;97302;-79
2022/08/09 01:10:22;;;;;;;10.13;9.25;;;;;;;19.86;48.75;101108.19;4915668;28;101279;-79
2022/08/09 01:12:56;;;;;;;9.50;8.77;;;;;;;19.80;48.57;101098.75;4914162;28;101595;-79
2022/08/09 01:15:24;;;;;;;10.57;9.40;;;;;;;19.81;48.66;101108.47;4898155;28;96763;-79
2022/08/09 01:17:58;;;;;;;10.10;9.07;;;;;;;19.66;48.91;101088.97;4916478;28;97092;-79
2022/08/09 01:20:54;;;;;;;10.95;9.05;;;;;;;19.73;49.14;101101.91;4902587;28;101570;-79
2022/08/09 01:23:33;;;;;;;10.13;9.43;;;;;;;19.75;49.02;101111.53;4932651;28;98056;-81
2022/08/09 01:26:17;;;;;;;10.70;9.80;;;;;;;19.58;49.24;101080.53;4933036;28;97124;-82
2022/08/09 01:28:44;;;;;;;9.80;8.95;;;;;;;19.65;49.52;101094.34;4916694;28;97013;-82
2022/08/09 01:31:14;;;;;;;12.20;9.70;;;;;;;19.65;48.97;101099.69;4921372;28;98342;-81
2022/08/09 01:33:43;;;;;;;10.48;9.63;;;;;;;19.61;49.51;101106.13;4910793;28;101318;-81
2022/08/09 01:36:14;;;;;;;10.50;9.55;;;;;;;19.64;49.52;101104.13;4907515;28;97110;-80
2022/08/09 01:38:42;;;;;;;10.68;9.82;;;;;;;19.54;49.62;101094.97;4914008;28;97398;-79
2022/08/09 01:41:11;;;;;;;10.13;9.23;;;;;;;19.44;49.59;101084.00;4915036;28;97872;-80
2022/08/09 01:43:39;;;;;;;10.50;9.70;;;;;;;19.44;50.00;101085.81;4936793;28;98666;-79
2022/08/09 01:46:05;;;;;;;10.38;9.57;;;;;;;19.52;50.07;101107.53;4919697;28;96906;-82
2022/08/09 01:48:30;;;;;;;9.88;9.18;;;;;;;19.47;49.87;101112.25;4936507;28;96840;-79
2022/08/09 01:50:57;;;;;;;12.13;9.70;;;;;;;19.57;49.82;101112.56;4919338;28;101374;-79
2022/08/09 01:53:24;;;;;;;10.55;9.50;;;;;;;19.50;50.01;101122.72;4910327;28;101187;-79
2022/08/09 01:55:51;;;;;;;9.88;8.93;;;;;;;19.50;49.89;101100.56;4895541;28;96844;-80
2022/08/09 01:58:17;;;;;;;10.82;9.88;;;;;;;19.49;49.89;101107.72;4938437;28;96879;-82
2022/08/09 02:00:43;;;;;;;10.32;9.35;;;;;;;19.58;49.43;101114.28;4903220;28;101362;-83
2022/08/09 02:03:08;;;;;;;9.63;8.93;;;;;;;19.58;50.05;101123.13;4914592;28;100898;-79
2022/08/09 02:05:35;;;;;;;9.88;9.18;;;;;;;19.46;50.53;101118.53;4915982;28;96848;-82
2022/08/09 02:08:09;;;;;;;11.38;10.40;;;;;;;19.56;50.30;101130.34;4908295;28;96920;-80
2022/08/09 02:10:38;;;;;;;9.80;9.10;;;;;;;19.53;50.67;101121.69;4917443;28;97586;-79
2022/08/09 02:13:06;;;;;;;10.77;9.85;;;;;;;19.49;50.91;101131.66;4923239;28;101426;-79
2022/08/09 02:15:33;;;;;;;10.82;9.82;;;;;;;19.45;51.09;101124.78;4912137;28;96791;-79
2022/08/09 02:17:59;;;;;;;10.20;9.35;;;;;;;19.38;51.22;101103.00;4931434;28;96940;-79
2022/08/09 02:20:25;;;;;;;10.50;9.70;;;;;;;19.50;51.45;101124.53;4899522;28;101323;-82
2022/08/09 02:22:56;;;;;;;10.50;9.63;;;;;;;19.38;51.38;101107.47;4914840;28;101386;-83
2022/08/09 02:25:28;;;;;;;10.50;9.80;;;;;;;19.49;51.45;101130.78;4899361;28;97188;-79
2022/08/09 02:27:58;;;;;;;11.40;10.48;;;;;;;19.35;51.50;101115.63;4912070;28;97254;-79
2022/08/09 02:30:25;;;;;;;11.40;10.40;;;;;;;19.48;51.71;101129.94;4913095;28;98061;-79
2022/08/09 02:32:52;;;;;;;10.80;10.00;;;;;;;19.37;51.87;101111.94;4910043;28;101259;-82
2022/08/09 02:35:22;;;;;;;10.55;9.55;;;;;;;19.35;52.08;101120.97;4931453;28;96754;-79
2022/08/09 02:37:51;;;;;;;11.93;10.83;;;;;;;19.29;51.77;101114.19;4913433;28;96709;-79
2022/08/09 02:40:17;;;;;;;11.00;10.13;;;;;;;19.38;51.93;101123.44;4915159;28;101357;-79
2022/08/09 02:42:47;;;;;;;10.82;9.93;;;;;;;19.38;52.09;101116.31;4915207;28;101310;-80
2022/08/09 02:45:15;;;;;;;11.77;10.68;;;;;;;19.20;52.31;101099.63;4914259;28;96855;-80
2022/08/09 02:47:42;;;;;;;12.75;11.57;;;;;;;19.31;52.24;101111.41;4931175;28;96939;-82
2022/08/09 02:50:11;;;;;;;12.93;11.63;;;;;;;19.28;52.67;101120.44;4895483;28;102333;-81
2022/08/09 02:52:43;;;;;;;14.00;12.70;;;;;;;19.18;52.93;101117.47;4912801;28;101188;-80
2022/08/09 02:55:10;;;;;;;13.57;12.30;;;;;;;19.21;52.76;101125.25;4913437;28;97537;-81
2022/08/09 02:57:37;;;;;;;14.55;13.15;;;;;;;19.15;52.98;101114.97;4914240;28;97085;-80
2022/08/09 03:00:05;;;;;;;12.68;11.60;;;;;;;19.20;53.29;101120.03;4913533;28;101153;-80
2022/08/09 03:02:31;;;;;;;12.77;11.80;;;;;;;19.12;53.27;101104.50;4930348;28;97373;-80
2022/08/09 03:04:57;;;;;;;12.02;10.82;;;;;;;19.14;53.61;101112.38;4895299;28;96897;-79
2022/08/09 03:07:23;;;;;;;12.35;11.15;;;;;;;18.98;53.41;101083.16;4930207;28;97176;-80
2022/08/09 03:09:49;;;;;;;10.85;10.02;;;;;;;19.14;53.51;101123.03;4922862;28;98752;-80
2022/08/09 03:12:16;;;;;;;11.70;10.90;;;;;;;19.20;53.38;101130.69;4940793;28;97291;-83
2022/08/09 03:14:42;;;;;;;11.73;10.82;;;;;;;19.07;53.74;101122.53;4916851;28;97027;-79
2022/08/09 03:17:09;;;;;;;11.93;10.90;;;;;;;19.05;53.68;101119.09;4933431;28;97565;-80
2022/08/09 03:19:35;;;;;;;11.77;10.70;;;;;;;18.98;53.85;101110.59;4933968;28;101422;-80
2022/08/09 03:22:01;;;;;;;11.82;10.82;;;;;;;18.99;53.58;101125.66;4932923;28;101529;-80
2022/08/09 03:24:26;;;;;;;12.07;11.05;;;;;;;18.98;53.84;101129.22;4913541;28;97372;-80
2022/08/09 03:26:52;;;;;;;11.25;10.45;;;;;;;18.95;53.56;101120.56;4916541;28;97513;-83
2022/08/09 03:29:18;;;;;;;12.25;11.35;;;;;;;18.90;53.57;101118.16;4932721;28;101450;-81
2022/08/09 03:31:43;;;;;;;12.38;11.48;;;;;;;18.95;53.56;101121.44;4932579;28;101498;-80
2022/08/09 03:34:10;;;;;;;12.30;11.30;;;;;;;18.86;53.97;101119.28;4917271;28;97221;-80
2022/08/09 03:36:36;;;;;;;12.73;11.60;;;;;;;18.95;53.66;101121.44;4917584;28;96939;-79
2022/08/09 03:39:02;;;;;;;11.90;10.90;;;;;;;18.78;53.67;101122.38;4931759;28;101297;-80
2022/08/09 03:41:28;;;;;;;12.30;11.40;;;;;;;18.59;53.95;101099.50;4896739;28;101259;-80
2022/08/09 03:43:54;;;;;;;12.60;11.05;;;;;;;18.67;54.15;101114.09;4913082;28;97045;-83
2022/08/09 03:46:19;;;;;;;12.52;11.27;;;;;;;18.66;54.79;101115.03;4915402;28;96931;-80
2022/08/09 03:48:48;;;;;;;12.77;11.50;;;;;;;18.64;54.75;101118.72;4904189;28;101487;-80
2022/08/09 03:51:14;;;;;;;11.90;10.95;;;;;;;18.40;55.23;101097.84;4917894;28;101375;-80
2022/08/09 03:53:40;;;;;;;12.82;11.57;;;;;;;18.59;54.81;101126.09;4914330;28;97227;-80
2022/08/09 03:56:06;;;;;;;12.90;11.25;;;;;;;18.63;54.91;101125.00;4898703;28;96991;-80
2022/08/09 03:58:32;;;;;;;13.30;11.38;;;;;;;18.61;55.15;101127.72;4899442;28;101038;-79
2022/08/09 04:00:57;;;;;;;12.52;11.45;;;;;;;18.59;55.51;101132.28;4912934;28;101925;-80
2022/08/09 04:03:23;;;;;;;12.77;11.70;;;;;;;18.53;55.31;101128.16;4926909;28;97274;-79
2022/08/09 04:05:48;;;;;;;12.70;11.40;;;;;;;18.60;55.70;101149.09;4943102;28;97004;-81
2022/08/09 04:08:14;;;;;;;13.57;12.38;;;;;;;18.56;55.22;101119.16;4909763;28;97489;-80
2022/08/09 04:10:40;;;;;;;12.90;11.70;;;;;;;18.76;55.07;101150.00;4914790;28;97512;-80
2022/08/09 04:13:08;;;;;;;12.48;11.45;;;;;;;18.73;55.24;101139.47;4914326;28;97305;-80
2022/08/09 04:15:35;;;;;;;12.00;11.10;;;;;;;18.84;54.87;101142.44;4914312;28;97115;-81
2022/08/09 04:18:01;;;;;;;11.73;10.65;;;;;;;18.74;54.90;101130.63;4912748;28;101084;-82
2022/08/09 04:20:26;;;;;;;12.40;11.40;;;;;;;18.77;54.79;101139.28;4914864;28;101111;-81
2022/08/09 04:22:52;;;;;;;12.68;11.68;;;;;;;18.75;54.43;101137.63;4916038;28;96869;-81
2022/08/09 04:25:17;;;;;;;12.07;11.02;;;;;;;18.91;54.16;101149.16;4913162;28;96765;-81
2022/08/09 04:27:43;;;;;;;11.90;10.80;;;;;;;18.89;54.18;101139.53;4915416;28;100898;-80
2022/08/09 04:30:10;;;;;;;12.25;11.18;;;;;;;18.91;54.33;101145.66;4912531;28;101202;-80
2022/08/09 04:32:36;;;;;;;13.63;10.98;;;;;;;18.89;54.31;101148.38;4929356;28;96812;-81
2022/08/09 04:35:01;;;;;;;12.50;11.50;;;;;;;18.84;54.77;101150.44;4912893;28;96931;-81
2022/08/09 04:37:27;;;;;;;12.15;10.93;;;;;;;18.84;55.01;101157.56;4915868;28;101231;-81
2022/08/09 04:39:52;;;;;;;11.98;10.98;;;;;;;18.89;54.37;101155.50;4909482;28;101626;-81
2022/08/09 04:42:18;;;;;;;12.15;10.98;;;;;;;18.95;54.05;101155.16;4911693;28;97116;-81
2022/08/09 04:44:43;;;;;;;12.10;11.13;;;;;;;18.91;54.22;101124.38;4889731;28;97089;-80
2022/08/09 04:47:09;;;;;;;14.48;11.88;;;;;;;19.33;53.24;101150.31;4909561;28;101821;-81
2022/08/09 04:49:37;;;;;;;12.27;11.18;;;;;;;19.51;52.70;101139.56;4913734;28;97375;-81
2022/08/09 04:52:03;;;;;;;11.98;10.77;;;;;;;19.86;52.12;101156.13;4908438;28;96767;-81
2022/08/09 04:54:29;;;;;;;11.98;10.40;;;;;;;19.90;52.03;101157.69;4904517;28;97860;-81
2022/08/09 04:56:54;;;;;;;12.50;11.18;;;;;;;19.80;52.39;101170.69;4912682;28;101978;-80
2022/08/09 04:59:20;;;;;;;12.63;11.35;;;;;;;19.83;52.86;101164.31;4910587;28;97846;-82
2022/08/09 05:01:45;;;;;;;12.82;11.20;;;;;;;19.91;52.44;101148.75;4915293;28;97994;-80
2022/08/09 05:04:11;;;;;;;13.73;11.60;;;;;;;20.23;51.75;101170.78;4919691;28;97136;-80
2022/08/09 05:06:36;;;;;;;13.93;11.68;;;;;;;20.25;51.63;101168.03;4922901;28;97543;-80
2022/08/09 05:09:02;;;;;;;13.77;11.80;;;;;;;20.44;51.24;101151.75;4903892;28;101473;-81
2022/08/09 05:11:28;;;;;;;13.10;11.80;;;;;;;20.59;50.79;101148.13;4941389;28;97191;-81
2022/08/09 05:13:54;;;;;;;12.60;11.30;;;;;;;21.02;50.46;101180.09;4904274;28;97766;-81
2022/08/09 05:16:20;;;;;;;14.52;10.68;;;;;;;21.19;50.17;101181.69;4911369;28;102152;-82
2022/08/09 05:18:46;;;;;;;11.30;10.13;;;;;;;21.26;49.85;101174.97;4921760;28;101140;-81
2022/08/09 05:21:11;;;;;;;15.77;11.15;;;;;;;21.59;49.55;101176.44;4918687;28;97073;-83
2022/08/09 05:23:37;;;;;;;16.85;11.68;;;;;;;21.73;49.12;101176.38;4921287;28;97307;-82
2022/08/09 05:26:02;;;;;;;18.23;11.95;;;;;;;21.86;48.98;101177.22;4897881;28;101497;-81
2022/08/09 05:28:28;;;;;;;18.27;11.35;;;;;;;22.02;48.56;101171.72;4942141;28;98021;-81
2022/08/09 05:30:53;;;;;;;14.95;11.98;;;;;;;22.07;48.50;101180.25;4927860;28;96910;-81
2022/08/09 05:33:19;;;;;;;14.10;11.90;;;;;;;21.91;48.62;101180.44;4916196;28;98372;-81
2022/08/09 05:35:44;;;;;;;12.95;11.85;;;;;;;22.01;48.52;101187.84;4912317;28;98190;-80
2022/08/09 05:38:10;;;;;;;12.80;11.75;;;;;;;21.96;48.53;101196.16;4909671;28;100939;-81
2022/08/09 05:40:35;;;;;;;12.50;11.00;;;;;;;21.89;48.66;101185.03;4920169;28;97251;-81
2022/08/09 05:43:01;;;;;;;12.25;11.15;;;;;;;21.90;49.39;101188.56;4910844;28;97092;-81
2022/08/09 05:45:28;;;;;;;12.43;11.18;;;;;;;21.89;48.79;101185.03;4891534;28;101149;-81
2022/08/09 05:47:54;;;;;;;12.77;11.13;;;;;;;21.67;48.46;101134.88;4922783;28;102062;-80
2022/08/09 05:50:24;;;;;;;12.13;11.02;;;;;;;21.86;48.28;101184.41;4939209;28;96763;-82
2022/08/09 05:52:50;;;;;;;12.43;11.43;;;;;;;21.84;48.45;101184.47;4932789;28;96894;-81
2022/08/09 05:55:16;;;;;;;14.48;11.02;;;;;;;21.80;48.64;101179.47;4917986;28;97553;-81
2022/08/09 05:57:41;;;;;;;12.50;10.68;;;;;;;21.70;49.10;101173.91;4922700;28;98022;-82
2022/08/09 06:00:08;;;;;;;12.65;11.32;;;;;;;21.67;49.13;101171.41;4921543;28;96773;-81
2022/08/09 06:02:36;;;;;;;12.85;11.27;;;;;;;21.70;49.22;101190.78;4926223;28;97719;-82
2022/08/09 06:05:02;;;;;;;11.77;10.60;;;;;;;21.72;49.20;101195.16;4920258;28;101075;-82
2022/08/09 06:07:28;;;;;;;15.68;10.88;;;;;;;21.68;49.26;101176.66;4901988;28;100711;-81
2022/08/09 06:09:54;;;;;;;13.27;11.15;;;;;;;21.80;49.27;101192.81;4898571;28;96999;-85
2022/08/09 06:12:20;;;;;;;15.65;11.70;;;;;;;21.72;49.42;101189.81;4914143;28;97111;-85
2022/08/09 06:14:45;;;;;;;12.20;10.75;;;;;;;21.70;49.41;101189.94;4914488;28;101185;-85
2022/08/09 06:17:11;;;;;;;12.63;11.25;;;;;;;;;;4898169;28;100993;-85
2022/08/09 06:19:37;;;;;;;15.57;10.88;;;;;;;21.86;49.31;101195.09;4914808;28;96725;-85
2022/08/09 06:22:03;;;;;;;13.55;12.10;;;;;;;21.81;49.29;101190.03;4899269;28;96945;-85
2022/08/09 06:24:28;;;;;;;14.13;12.48;;;;;;;21.86;49.34;101182.56;4899303;28;101195;-85
2022/08/09 06:26:54;;;;;;;15.82;11.43;;;;;;;21.79;49.68;101175.09;4915865;28;100991;-84
2022/08/09 06:29:19;;;;;;;13.18;11.80;;;;;;;21.85;49.45;101172.00;4904586;28;97696;-85
2022/08/09 06:31:45;;;;;;;11.95;10.82;;;;;;;21.96;49.03;101174.78;4914388;28;97074;-86
2022/08/09 06:34:10;;;;;;;12.52;11.23;;;;;;;22.22;48.76;101199.75;4887155;28;101725;-84
2022/08/09 06:36:36;;;;;;;12.48;11.18;;;;;;;22.06;48.73;101167.84;4884306;28;99858;-85
2022/08/09 06:39:02;;;;;;;12.43;11.45;;;;;;;22.18;48.51;101182.22;4913697;28;97346;-85
2022/08/09 06:41:28;;;;;;;13.73;10.82;;;;;;;22.31;48.37;101176.84;4904570;28;96993;-85
2022/08/09 06:43:53;;;;;;;11.60;10.48;;;;;;;22.40;48.58;101200.31;4897022;28;100048;-85
2022/08/09 06:46:19;;;;;;;12.00;10.80;;;;;;;22.37;48.47;101192.50;4888904;28;100862;-85
2022/08/09 06:48:44;;;;;;;12.98;10.73;;;;;;;22.32;48.49;101184.78;4913004;28;96815;-85
2022/08/09 06:51:13;;;;;;;13.77;12.50;;;;;;;22.38;48.35;101195.06;4916642;28;96883;-85
2022/08/09 06:53:39;;;;;;;12.82;11.52;;;;;;;22.52;48.04;101190.56;4909460;28;101310;-85
2022/08/09 06:56:06;;;;;;;12.80;11.57;;;;;;;22.45;48.20;101194.63;4908641;28;101106;-85
2022/08/09 06:58:34;;;;;;;12.32;11.02;;;;;;;22.34;48.03;101180.19;4929976;28;97171;-85
2022/08/09 07:00:59;;;;;;;12.05;11.00;;;;;;;22.44;48.19;101193.78;4928131;28;97210;-85
2022/08/09 07:03:29;;;;;;;12.23;11.02;;;;;;;22.22;47.78;101159.63;4924344;28;98583;-86
2022/08/09 07:05:56;;;;;;;12.57;11.40;;;;;;;22.27;47.54;101180.72;4916452;28;104716;-84
2022/08/09 07:08:21;;;;;;;12.05;10.82;;;;;;;22.27;48.10;101180.72;4915676;28;97031;-85
2022/08/09 07:10:47;;;;;;;11.38;10.38;;;;;;;22.44;48.11;101223.19;4928478;28;97525;-85
2022/08/09 07:13:12;;;;;;;11.32;10.40;;;;;;;22.49;48.05;101220.22;4916000;28;97297;-77
2022/08/09 07:15:38;;;;;;;11.70;10.55;;;;;;;22.57;47.97;101225.88;4925984;28;97339;-76
2022/08/09 07:18:03;;;;;;;12.65;10.80;;;;;;;22.57;47.56;101225.88;4930559;28;96766;-79
2022/08/09 07:20:29;;;;;;;13.15;10.35;;;;;;;22.54;47.64;101226.97;4924749;28;96871;-75
2022/08/09 07:22:54;;;;;;;12.05;10.80;;;;;;;22.59;47.71;101238.16;4911877;28;98466;-77
2022/08/09 07:25:20;;;;;;;11.63;10.43;;;;;;;22.60;47.68;101242.59;4912763;28;100712;-76
2022/08/09 07:27:45;;;;;;;12.38;11.35;;;;;;;22.61;48.13;101235.41;4897901;28;97165;-77
2022/08/09 07:30:12;;;;;;;12.52;11.35;;;;;;;22.48;47.98;101223.84;4890371;28;97869;-77
2022/08/09 07:32:38;;;;;;;13.93;11.38;;;;;;;22.59;47.57;101240.84;4911736;28;100902;-76
2022/08/09 07:35:06;;;;;;;12.90;11.55;;;;;;;22.52;47.31;101239.56;4930247;28;101747;-88
2022/08/09 07:37:31;;;;;;;13.18;11.52;;;;;;;22.57;47.21;101241.91;4913902;28;96971;-93
2022/08/09 07:39:57;;;;;;;12.07;11.02;;;;;;;22.50;47.21;101240.66;4893795;28;98241;-91
2022/08/09 07:42:23;;;;;;;12.20;11.07;;;;;;;22.62;47.65;101245.13;4940306;28;97833;-92
2022/08/09 07:44:49;;;;;;;11.98;10.80;;;;;;;22.71;47.25;101251.66;4916159;28;98330;-87
2022/08/09 07:47:15;;;;;;;12.18;11.07;;;;;;;22.78;47.30;101252.97;4920890;28;96788;-91
2022/08/09 07:49:41;;;;;;;12.18;10.93;;;;;;;22.80;47.31;101254.53;4923214;28;97214;-92
2022/08/09 07:52:06;;;;;;;12.18;10.98;;;;;;;22.94;47.37;101256.22;4931692;28;101375;-91
2022/08/09 07:54:33;;;;;;;12.45;11.15;;;;;;;22.99;47.07;101234.53;4915658;28;101936;-93
2022/08/09 07:56:58;;;;;;;12.82;10.40;;;;;;;23.18;47.02;101250.13;4900374;28;96933;-92
2022/08/09 07:59:23;;;;;;;12.32;11.10;;;;;;;23.23;47.06;101247.97;4932366;28;97025;-92
2022/08/09 08:01:49;;;;;;;12.35;11.25;;;;;;;23.39;46.51;101245.03;4912593;28;101596;-91
2022/08/09 08:04:15;;;;;;;11.60;10.60;;;;;;;23.51;46.06;101249.50;4906052;28;101120;-92
2022/08/09 08:06:40;;;;;;;11.32;10.20;;;;;;;23.64;46.07;101244.91;4901500;28;98355;-91
2022/08/09 08:09:06;;;;;;;10.95;10.07;;;;;;;23.50;45.79;101221.84;4931165;28;96710;-93
2022/08/09 08:11:31;;;;;;;11.32;10.32;;;;;;;23.71;45.62;101240.84;4914175;28;98447;-92
2022/08/09 08:13:57;;;;;;;11.27;10.25;;;;;;;23.68;45.78;101210.72;4932552;28;101114;-91
2022/08/09 08:16:22;;;;;;;11.45;10.27;;;;;;;23.90;45.37;101240.31;4919781;28;97301;-82
2022/08/09 08:18:48;;;;;;;11.43;10.30;;;;;;;23.96;45.17;101236.31;4925246;28;97265;-79
2022/08/09 08:21:13;;;;;;;11.18;10.40;;;;;;;24.07;44.88;101248.91;4896285;28;100832;-80
2022/08/09 08:23:39;;;;;;;13.70;11.25;;;;;;;24.04;44.78;101250.00;4898370;28;101281;-76
2022/08/09 08:26:04;;;;;;;12.20;11.13;;;;;;;24.16;44.84;101256.25;4916060;28;96854;-79
2022/08/09 08:28:30;;;;;;;12.43;11.30;;;;;;;24.20;44.81;101251.50;4898746;28;97373;-80
2022/08/09 08:30:55;;;;;;;12.00;11.00;;;;;;;24.44;44.51;101252.34;4938346;28;97495;-79
2022/08/09 08:33:21;;;;;;;12.13;11.15;;;;;;;24.67;44.34;101244.28;4901285;28;101260;-79
2022/08/09 08:35:46;;;;;;;13.07;11.02;;;;;;;24.91;43.51;101246.88;4916964;28;97298;-79
2022/08/09 08:38:12;;;;;;;12.10;11.10;;;;;;;25.11;42.85;101253.34;4925809;28;97378;-82
2022/08/09 08:40:37;;;;;;;11.65;10.75;;;;;;;25.29;42.90;101257.25;4931490;28;97648;-82
2022/08/09 08:43:03;;;;;;;12.98;11.35;;;;;;;25.25;42.04;101231.63;4916682;28;97424;-79
2022/08/09 08:45:32;;;;;;;12.18;11.05;;;;;;;25.61;41.89;101257.28;4902531;28;97075;-79
2022/08/09 08:47:57;;;;;;;13.32;11.32;;;;;;;25.91;41.96;101256.56;4935699;28;97135;-81
2022/08/09 08:50:23;;;;;;;14.63;11.35;;;;;;;26.07;42.12;101258.00;4918104;28;101254;-81
2022/08/09 08:52:51;;;;;;;12.60;11.55;;;;;;;26.04;41.68;101239.44;4928712;28;98115;-78
2022/08/09 08:55:17;;;;;;;11.88;10.88;;;;;;;26.27;41.54;101257.16;4912979;28;96957;-82
2022/08/09 08:57:42;;;;;;;12.00;10.88;;;;;;;26.39;41.15;101255.25;4916972;28;97105;-81
2022/08/09 09:00:09;;;;;;;12.07;11.13;;;;;;;26.43;41.12;101227.06;4919525;28;101451;-79
2022/08/09 09:02:35;;;;;;;13.13;11.52;;;;;;;26.53;41.07;101235.22;4916902;28;101996;-79
2022/08/09 09:05:01;;;;;;;11.52;10.70;;;;;;;26.72;41.08;101254.16;4923756;28;97205;-81
2022/08/09 09:07:29;;;;;;;12.32;11.00;;;;;;;26.72;41.17;101248.78;4926827;28;97248;-81
2022/08/09 09:09:55;;;;;;;11.77;10.70;;;;;;;26.91;41.41;101250.72;4923703;28;101014;-81
2022/08/09 09:12:28;;;;;;;11.60;10.60;;;;;;;27.21;40.07;101244.47;4915620;28;101141;-79
2022/08/09 09:14:56;;;;;;;11.45;10.30;;;;;;;27.40;39.80;101229.31;4931029;28;97010;-76
2022/08/09 09:17:21;;;;;;;11.57;10.32;;;;;;;27.68;39.13;101224.94;4899257;28;97688;-83
2022/08/09 09:19:47;;;;;;;11.73;10.93;;;;;;;27.84;38.75;101217.19;4912193;28;101420;-76
2022/08/09 09:22:18;;;;;;;11.50;10.52;;;;;;;28.38;38.48;101239.94;4927038;28;101063;-80
2022/08/09 09:24:48;;;;;;;11.75;10.85;;;;;;;28.40;38.13;101247.91;4910527;28;97163;-78
2022/08/09 09:27:17;;;;;;;11.80;10.70;;;;;;;28.48;38.74;101247.19;4904813;28;97121;-80
2022/08/09 09:29:43;;;;;;;11.63;10.48;;;;;;;28.51;38.34;101252.31;4928511;28;97680;-78
2022/08/09 09:32:10;;;;;;;11.65;10.65;;;;;;;28.26;37.22;101211.44;4902870;28;101165;-78
2022/08/09 09:34:37;;;;;;;12.02;10.95;;;;;;;27.81;37.83;101230.97;4912091;28;97311;-79
2022/08/09 09:37:04;;;;;;;12.02;11.07;;;;;;;27.90;37.52;101248.97;4910770;28;97018;-79
2022/08/09 09:39:31;;;;;;;11.90;11.00;;;;;;;27.76;37.79;101236.72;4904645;28;101252;-79
2022/08/09 09:41:57;;;;;;;11.27;10.38;;;;;;;27.80;37.17;101233.78;4925611;28;101127;-79
2022/08/09 09:44:23;;;;;;;11.90;10.80;;;;;;;27.83;37.03;101249.69;4912468;28;97192;-79
2022/08/09 09:46:48;;;;;;;14.18;10.60;;;;;;;27.51;37.51;101248.06;4930419;28;97432;-79
2022/08/09 09:49:18;;;;;;;11.93;10.85;;;;;;;28.04;37.26;101247.66;4896045;28;100843;-80
2022/08/09 09:51:44;;;;;;;11.00;10.17;;;;;;;28.57;35.90;101244.50;4921964;28;97962;-78
2022/08/09 09:54:12;;;;;;;11.55;10.43;;;;;;;28.51;35.74;101242.38;4937314;28;97402;-82
2022/08/09 09:56:44;;;;;;;12.18;10.95;;;;;;;28.97;35.69;101246.00;4920288;28;96789;-84
2022/08/09 09:59:10;;;;;;;11.60;10.80;;;;;;;29.23;36.10;101245.34;4931508;28;98115;-82
2022/08/09 10:01:36;;;;;;;11.70;10.88;;;;;;;29.38;35.36;101229.44;4895044;28;101220;-81
2022/08/09 10:04:03;;;;;;;11.50;10.55;;;;;;;29.48;35.14;101220.28;4897364;28;97358;-81
2022/08/09 10:06:40;;;;;;;11.80;10.90;;;;;;;29.22;34.33;101222.03;4916511;28;97116;-83
2022/08/09 10:09:07;;;;;;;11.65;10.57;;;;;;;29.19;34.08;101233.16;4940155;28;98128;-81
2022/08/09 10:11:34;;;;;;;11.52;10.73;;;;;;;29.01;33.10;101241.19;4907055;28;101060;-88
2022/08/09 10:14:00;;;;;;;11.48;10.63;;;;;;;28.97;32.82;101232.50;4913663;28;96660;-89
2022/08/09 10:16:36;;;;;;;10.73;10.02;;;;;;;29.21;33.77;101234.69;4912628;28;97304;-89
2022/08/09 10:19:04;;;;;;;12.20;11.30;;;;;;;29.15;34.12;101212.81;4916069;28;101577;-89
2022/08/09 10:21:30;;;;;;;12.18;11.02;;;;;;;29.11;34.15;101229.34;4899678;28;99854;-91
2022/08/09 10:24:00;;;;;;;11.80;10.80;;;;;;;28.75;34.56;101212.16;4891176;28;96967;-90
2022/08/09 10:26:26;;;;;;;12.32;11.23;;;;;;;28.57;35.03;101225.59;4904480;28;96844;-92
2022/08/09 10:28:52;;;;;;;13.38;10.27;;;;;;;28.62;34.88;101223.31;4930296;28;101225;-93
2022/08/09 10:31:18;;;;;;;11.18;10.38;;;;;;;28.35;34.28;101201.59;4897631;28;100017;-87
2022/08/09 10:33:44;;;;;;;11.05;10.25;;;;;;;28.08;34.08;101215.88;4915876;28;97255;-90
2022/08/09 10:36:11;;;;;;;11.13;10.35;;;;;;;27.74;34.74;101217.13;4927608;28;97440;-87
2022/08/09 10:38:38;;;;;;;11.30;10.05;;;;;;;27.40;35.19;101219.41;4930335;28;98330;-89
2022/08/09 10:41:04;;;;;;;10.52;9.82;;;;;;;27.26;35.08;101215.25;4936852;28;98219;-90
2022/08/09 10:43:29;;;;;;;10.73;9.88;;;;;;;27.12;34.90;101214.78;4898077;28;96948;-87
2022/08/09 10:46:00;;;;;;;10.45;9.65;;;;;;;26.78;34.75;101189.00;4914560;28;97235;-87
2022/08/09 10:48:46;;;;;;;11.80;10.52;;;;;;;26.66;35.41;101195.47;4930840;28;97781;-90
2022/08/09 10:51:59;;;;;;;10.73;9.90;;;;;;;26.61;35.48;101209.31;4915923;28;99720;-93
2022/08/09 10:54:25;;;;;;;11.18;10.10;;;;;;;26.42;36.18;101187.69;4926039;28;96891;-87
2022/08/09 10:57:08;;;;;;;10.48;9.63;;;;;;;26.29;36.69;101197.81;4901621;28;96860;-88
2022/08/09 10:59:36;;;;;;;12.00;10.43;;;;;;;26.44;37.05;101204.53;4912193;28;98565;-83
2022/08/09 11:02:04;;;;;;;10.57;9.88;;;;;;;26.39;35.88;101201.41;4912950;28;101443;-84
2022/08/09 11:04:30;;;;;;;9.52;8.93;;;;;;;26.27;35.31;101197.06;4929699;28;97431;-85
2022/08/09 11:06:58;;;;;;;10.27;9.55;;;;;;;26.12;35.82;101199.25;4905259;28;97373;-85
2022/08/09 11:09:36;;;;;;;10.00;9.02;;;;;;;26.00;36.89;101197.63;4945991;28;101340;-86